createdAt,value
2018-05-09T00:00:46.729Z,41.16
2018-05-09T00:03:13.262Z,41.50
2018-05-09T00:05:39.737Z,41.27
2018-05-09T00:08:06.220Z,41.16
2018-05-09T00:10:32.585Z,41.69
2018-05-09T00:12:59.113Z,42.05
2018-05-09T00:15:25.487Z,41.71
2018-05-09T00:17:52.011Z,41.40
2018-05-09T00:20:19.116Z,41.75
2018-05-09T00:22:45.602Z,42.05
2018-05-09T00:25:12.707Z,42.25
2018-05-09T00:27:39.077Z,42.09
2018-05-09T00:30:06.270Z,42.04
2018-05-09T00:32:32.641Z,42.42
2018-05-09T00:34:58.986Z,42.28
2018-05-09T00:37:26.073Z,42.33
2018-05-09T00:39:52.377Z,42.23
2018-05-09T00:42:18.673Z,42.35
2018-05-09T00:44:44.997Z,42.87
2018-05-09T00:47:11.383Z,42.98
2018-05-09T00:49:37.710Z,42.39
2018-05-09T00:52:04.090Z,42.05
2018-05-09T00:54:32.342Z,42.59
2018-05-09T00:56:58.809Z,42.74
2018-05-09T00:59:25.870Z,43.03
2018-05-09T01:01:53.102Z,42.77
2018-05-09T01:04:19.520Z,42.76
2018-05-09T01:06:45.847Z,42.81
2018-05-09T01:09:12.197Z,42.98
2018-05-09T01:11:39.506Z,42.88
2018-05-09T01:14:06.012Z,43.44
2018-05-09T01:16:32.355Z,43.33
2018-05-09T01:18:58.687Z,43.35
2018-05-09T01:21:25.087Z,43.51
2018-05-09T01:23:52.182Z,43.41
2018-05-09T01:26:18.738Z,43.73
2018-05-09T01:28:45.057Z,43.62
2018-05-09T01:31:11.428Z,43.57
2018-05-09T01:33:37.798Z,43.75
2018-05-09T01:36:04.214Z,44.21
2018-05-09T01:38:30.620Z,44.11
2018-05-09T01:40:57.046Z,44.28
2018-05-09T01:43:24.083Z,44.33
2018-05-09T01:45:50.415Z,44.31
2018-05-09T01:48:17.480Z,44.37
2018-05-09T01:50:43.841Z,44.70
2018-05-09T01:53:10.363Z,44.50
2018-05-09T01:55:36.666Z,44.49
2018-05-09T01:58:03.132Z,44.32
2018-05-09T02:00:29.995Z,44.40
2018-05-09T02:02:56.370Z,44.03
2018-05-09T02:05:22.733Z,44.48
2018-05-09T02:07:49.084Z,44.44
2018-05-09T02:10:15.453Z,44.64
2018-05-09T02:12:42.550Z,44.73
2018-05-09T02:15:08.929Z,44.85
2018-05-09T02:17:35.312Z,44.83
2018-05-09T02:20:01.694Z,45.09
2018-05-09T02:22:28.788Z,45.31
2018-05-09T02:24:55.121Z,45.30
2018-05-09T02:27:21.444Z,45.60
2018-05-09T02:29:47.781Z,45.91
2018-05-09T02:32:14.088Z,45.92
2018-05-09T02:34:40.436Z,46.03
2018-05-09T02:37:06.777Z,45.79
2018-05-09T02:39:33.655Z,46.14
2018-05-09T02:41:59.905Z,46.24
2018-05-09T02:44:26.259Z,46.15
2018-05-09T02:46:52.568Z,46.20
2018-05-09T02:49:18.897Z,46.31
2018-05-09T02:51:45.301Z,46.33
2018-05-09T02:54:11.694Z,46.57
2018-05-09T02:56:38.051Z,46.56
2018-05-09T02:59:04.389Z,46.52
2018-05-09T03:01:30.765Z,46.63
2018-05-09T03:03:57.131Z,46.64
2018-05-09T03:06:23.493Z,46.56
2018-05-09T03:08:50.647Z,46.32
2018-05-09T03:11:17.737Z,46.58
2018-05-09T03:13:44.075Z,46.55
2018-05-09T03:16:10.457Z,46.70
2018-05-09T03:18:37.566Z,46.84
2018-05-09T03:21:03.906Z,46.95
2018-05-09T03:23:30.218Z,47.70
2018-05-09T03:25:56.555Z,48.17
2018-05-09T03:28:22.914Z,48.87
2018-05-09T03:30:50.056Z,50.08
2018-05-09T03:33:17.104Z,49.80
2018-05-09T03:35:44.226Z,50.21
2018-05-09T03:38:10.537Z,50.97
2018-05-09T03:40:37.375Z,52.55
2018-05-09T03:43:03.765Z,52.65
2018-05-09T03:45:30.110Z,54.05
2018-05-09T03:47:56.423Z,54.04
2018-05-09T03:50:23.493Z,53.37
2018-05-09T03:52:49.828Z,53.75
2018-05-09T03:55:16.370Z,53.83
2018-05-09T03:57:42.734Z,53.29
2018-05-09T04:00:09.081Z,53.79
2018-05-09T04:02:53.786Z,53.65
2018-05-09T04:05:38.562Z,54.65
2018-05-09T04:08:23.309Z,54.72
2018-05-09T04:10:49.689Z,56.10
2018-05-09T04:13:16.975Z,55.59
2018-05-09T04:15:43.317Z,57.01
2018-05-09T04:18:09.605Z,56.54
2018-05-09T04:20:36.789Z,57.46
2018-05-09T04:23:03.098Z,57.00
2018-05-09T04:25:30.213Z,57.60
2018-05-09T04:27:56.561Z,57.46
2018-05-09T04:30:22.906Z,57.91
2018-05-09T04:32:50.029Z,56.87
2018-05-09T04:35:16.519Z,58.12
2018-05-09T04:37:42.965Z,57.81
2018-05-09T04:40:09.283Z,58.59
2018-05-09T04:42:35.625Z,58.48
2018-05-09T04:45:01.916Z,58.03
2018-05-09T04:47:28.308Z,58.46
2018-05-09T04:49:54.823Z,58.79
2018-05-09T04:52:22.051Z,59.14
2018-05-09T04:54:48.450Z,59.29
2018-05-09T04:57:14.982Z,59.24
2018-05-09T04:59:42.138Z,60.05
2018-05-09T05:02:08.678Z,59.73
2018-05-09T05:04:36.093Z,58.53
2018-05-09T05:07:02.591Z,58.59
2018-05-09T05:09:28.893Z,57.59
2018-05-09T05:11:55.227Z,57.53
2018-05-09T05:14:22.353Z,56.06
2018-05-09T05:16:48.718Z,56.03
2018-05-09T05:19:15.121Z,55.22
2018-05-09T05:21:41.484Z,55.88
2018-05-09T05:24:07.878Z,55.96
2018-05-09T05:26:34.934Z,56.04
2018-05-09T05:29:02.063Z,56.30
2018-05-09T05:31:28.422Z,56.28
2018-05-09T05:33:54.771Z,56.06
2018-05-09T05:36:21.142Z,57.01
2018-05-09T05:38:48.097Z,55.92
2018-05-09T05:41:14.463Z,55.67
2018-05-09T05:43:40.798Z,53.86
2018-05-09T05:46:07.230Z,51.45
2018-05-09T05:48:33.693Z,49.23
2018-05-09T05:51:00.084Z,49.38
2018-05-09T05:53:27.195Z,49.96
2018-05-09T05:55:53.584Z,50.67
2018-05-09T05:58:19.946Z,52.03
2018-05-09T06:00:46.308Z,51.50
2018-05-09T06:03:13.416Z,51.17
2018-05-09T06:05:39.774Z,52.32
2018-05-09T06:08:06.107Z,52.28
2018-05-09T06:10:32.740Z,55.24
2018-05-09T06:12:59.169Z,53.78
2018-05-09T06:15:25.518Z,50.83
2018-05-09T06:17:52.654Z,51.46
2018-05-09T06:20:19.086Z,48.16
2018-05-09T06:22:45.475Z,46.67
2018-05-09T06:25:11.796Z,45.79
2018-05-09T06:27:38.126Z,43.37
2018-05-09T06:30:04.547Z,41.87
2018-05-09T06:32:30.941Z,40.20
2018-05-09T06:34:57.243Z,39.56
2018-05-09T06:37:23.907Z,35.56
2018-05-09T06:39:50.210Z,36.23
2018-05-09T06:42:16.570Z,34.20
2018-05-09T06:44:42.905Z,33.92
2018-05-09T06:47:10.043Z,33.69
2018-05-09T06:49:36.451Z,35.41
2018-05-09T06:52:02.816Z,37.79
2018-05-09T06:54:29.899Z,36.18
2018-05-09T06:56:56.233Z,37.71
2018-05-09T06:59:22.565Z,36.68
2018-05-09T07:01:48.906Z,37.83
2018-05-09T07:04:15.241Z,40.83
2018-05-09T07:06:42.137Z,40.91
2018-05-09T07:09:09.005Z,43.91
2018-05-09T07:11:35.396Z,44.34
2018-05-09T07:14:01.864Z,45.17
2018-05-09T07:16:28.274Z,47.61
2018-05-09T07:18:54.632Z,48.64
2018-05-09T07:21:20.964Z,47.66
2018-05-09T07:23:47.378Z,48.83
2018-05-09T07:26:13.827Z,49.47
2018-05-09T07:28:40.217Z,47.07
2018-05-09T07:31:06.590Z,46.51
2018-05-09T07:33:32.919Z,47.35
2018-05-09T07:35:59.329Z,45.89
2018-05-09T07:38:25.767Z,45.44
2018-05-09T07:40:52.087Z,45.44
2018-05-09T07:43:18.506Z,45.16
2018-05-09T07:45:44.878Z,45.78
2018-05-09T07:48:11.250Z,44.68
2018-05-09T07:50:37.698Z,44.84
2018-05-09T07:53:04.777Z,44.72
2018-05-09T07:55:31.119Z,44.81
2018-05-09T07:57:57.470Z,45.52
2018-05-09T08:00:23.882Z,44.55
2018-05-09T08:02:50.251Z,44.95
2018-05-09T08:05:16.636Z,44.88
2018-05-09T08:07:43.061Z,44.30
2018-05-09T08:10:09.394Z,42.40
2018-05-09T08:12:35.869Z,43.73
2018-05-09T08:15:02.889Z,42.54
2018-05-09T08:17:29.267Z,42.98
2018-05-09T08:19:56.413Z,41.67
2018-05-09T08:22:22.895Z,41.42
2018-05-09T08:24:49.241Z,42.01
2018-05-09T08:27:15.606Z,41.27
2018-05-09T08:29:42.666Z,41.37
2018-05-09T08:32:09.003Z,41.44
2018-05-09T08:34:35.373Z,42.91
2018-05-09T08:37:01.683Z,43.04
2018-05-09T08:39:28.029Z,42.48
2018-05-09T08:41:54.398Z,42.11
2018-05-09T08:44:21.566Z,41.08
2018-05-09T08:46:47.987Z,40.43
2018-05-09T08:49:18.824Z,41.75
2018-05-09T08:51:45.079Z,41.96
2018-05-09T08:54:11.380Z,40.21
2018-05-09T08:56:38.672Z,41.27
2018-05-09T08:59:05.501Z,42.47
2018-05-09T09:01:31.860Z,42.51
2018-05-09T09:03:58.202Z,42.94
2018-05-09T09:06:24.634Z,41.39
2018-05-09T09:08:53.440Z,40.96
2018-05-09T09:11:19.779Z,42.18
2018-05-09T09:13:46.116Z,41.42
2018-05-09T09:16:13.300Z,40.93
2018-05-09T09:18:39.946Z,41.85
2018-05-09T09:21:06.407Z,41.90
2018-05-09T09:23:32.851Z,40.77
2018-05-09T09:26:00.053Z,41.67
2018-05-09T09:28:26.396Z,41.22
2018-05-09T09:30:52.732Z,40.67
2018-05-09T09:33:19.078Z,40.35
2018-05-09T09:35:45.463Z,40.64
2018-05-09T09:38:11.860Z,40.46
2018-05-09T09:40:38.934Z,40.48
2018-05-09T09:43:05.250Z,40.49
2018-05-09T09:45:32.333Z,39.37
2018-05-09T09:47:58.683Z,40.84
2018-05-09T09:50:25.094Z,39.40
2018-05-09T09:52:51.437Z,40.56
2018-05-09T09:55:17.774Z,42.03
2018-05-09T09:57:44.104Z,39.98
2018-05-09T10:00:10.866Z,40.06
2018-05-09T10:02:37.134Z,39.98
2018-05-09T10:05:03.508Z,39.33
2018-05-09T10:07:29.901Z,38.42
2018-05-09T10:09:56.233Z,38.33
2018-05-09T10:12:22.652Z,38.61
2018-05-09T10:14:49.032Z,39.46
2018-05-09T10:17:15.383Z,38.96
2018-05-09T10:19:42.538Z,39.11
2018-05-09T10:22:08.906Z,39.53
2018-05-09T10:24:35.282Z,39.53
2018-05-09T10:27:01.622Z,38.12
2018-05-09T10:29:28.046Z,38.73
2018-05-09T10:31:54.443Z,39.46
2018-05-09T10:34:20.785Z,39.60
2018-05-09T10:36:47.071Z,39.69
2018-05-09T10:39:14.134Z,38.15
2018-05-09T10:41:40.461Z,39.45
2018-05-09T10:44:06.786Z,38.91
2018-05-09T10:46:33.089Z,36.76
2018-05-09T10:49:00.160Z,36.70
2018-05-09T10:51:26.497Z,37.42
2018-05-09T10:53:52.865Z,35.50
2018-05-09T10:56:19.233Z,37.44
2018-05-09T10:58:45.593Z,38.90
2018-05-09T11:01:11.915Z,38.73
2018-05-09T11:03:38.433Z,38.43
2018-05-09T11:06:04.748Z,39.05
2018-05-09T11:08:31.869Z,38.40
2018-05-09T11:10:58.224Z,39.08
2018-05-09T11:13:25.364Z,39.22
2018-05-09T11:15:51.934Z,39.28
2018-05-09T11:18:18.279Z,39.28
2018-05-09T11:20:44.820Z,38.97
2018-05-09T11:23:11.120Z,38.91
2018-05-09T11:25:37.406Z,38.59
2018-05-09T11:28:03.852Z,39.34
2018-05-09T11:30:30.237Z,39.60
2018-05-09T11:32:56.734Z,40.00
2018-05-09T11:35:23.065Z,39.82
2018-05-09T11:37:49.419Z,40.13
2018-05-09T11:40:15.816Z,39.65
2018-05-09T11:42:42.218Z,39.00
2018-05-09T11:45:08.733Z,39.99
2018-05-09T11:47:35.097Z,39.94
2018-05-09T11:50:01.504Z,40.28
2018-05-09T11:52:27.925Z,39.40
2018-05-09T11:54:55.032Z,39.81
2018-05-09T11:57:21.649Z,38.36
2018-05-09T11:59:48.353Z,37.60
2018-05-09T12:02:15.437Z,36.97
2018-05-09T12:04:41.965Z,37.18
2018-05-09T12:07:08.812Z,37.42
2018-05-09T12:09:35.420Z,36.90
2018-05-09T12:12:01.817Z,35.96
2018-05-09T12:14:28.305Z,37.45
2018-05-09T12:16:55.508Z,37.11
2018-05-09T12:19:22.346Z,37.90
2018-05-09T12:21:48.743Z,36.51
2018-05-09T12:24:15.845Z,35.54
2018-05-09T12:26:42.521Z,34.71
2018-05-09T12:29:10.175Z,33.96
2018-05-09T12:31:37.398Z,33.98
2018-05-09T12:34:03.999Z,34.33
2018-05-09T12:36:30.527Z,34.77
2018-05-09T12:38:56.837Z,35.94
2018-05-09T12:41:24.401Z,35.30
2018-05-09T12:43:51.292Z,35.97
2018-05-09T12:46:17.702Z,35.72
2018-05-09T12:48:44.198Z,36.11
2018-05-09T12:51:10.519Z,35.28
2018-05-09T12:53:37.849Z,35.46
2018-05-09T12:56:04.321Z,33.75
2018-05-09T12:58:31.406Z,34.56
2018-05-09T13:00:57.751Z,35.76
2018-05-09T13:03:24.338Z,36.30
2018-05-09T13:05:51.485Z,37.01
2018-05-09T13:08:18.764Z,37.26
2018-05-09T13:10:45.348Z,37.53
2018-05-09T13:13:12.034Z,38.31
2018-05-09T13:15:39.598Z,38.35
2018-05-09T13:18:06.100Z,39.22
2018-05-09T13:20:32.517Z,36.85
2018-05-09T13:22:59.762Z,36.56
2018-05-09T13:25:26.407Z,35.95
2018-05-09T13:27:52.979Z,35.49
2018-05-09T13:30:19.617Z,34.88
2018-05-09T13:32:46.152Z,34.72
2018-05-09T13:35:12.658Z,33.68
2018-05-09T13:37:45.327Z,33.80
2018-05-09T13:40:11.812Z,32.44
2018-05-09T13:42:38.226Z,34.46
2018-05-09T13:45:04.564Z,33.77
2018-05-09T13:47:31.491Z,32.60
2018-05-09T13:49:57.844Z,32.87
2018-05-09T13:52:24.261Z,32.44
2018-05-09T13:54:50.696Z,32.20
2018-05-09T13:57:17.201Z,32.87
2018-05-09T13:59:51.392Z,32.48
2018-05-09T14:02:17.857Z,30.25
2018-05-09T14:04:44.227Z,30.12
2018-05-09T14:07:10.634Z,30.42
2018-05-09T14:09:37.034Z,30.38
2018-05-09T14:12:03.559Z,30.37
2018-05-09T14:14:30.114Z,30.32
2018-05-09T14:16:56.676Z,30.46
2018-05-09T14:19:23.043Z,29.58
2018-05-09T14:21:49.402Z,29.31
2018-05-09T14:24:15.781Z,28.33
2018-05-09T14:26:42.126Z,28.17
2018-05-09T14:29:08.543Z,29.36
2018-05-09T14:31:35.051Z,29.12
2018-05-09T14:34:01.467Z,28.00
2018-05-09T14:36:27.887Z,28.67
2018-05-09T14:38:55.088Z,28.00
2018-05-09T14:41:21.612Z,29.19
2018-05-09T14:43:48.178Z,28.36
2018-05-09T14:46:14.564Z,29.54
2018-05-09T14:48:40.966Z,30.36
2018-05-09T14:51:08.117Z,31.43
2018-05-09T14:53:34.836Z,30.71
2018-05-09T14:56:01.308Z,31.02
2018-05-09T14:58:27.764Z,31.14
2018-05-09T15:00:54.120Z,30.74
2018-05-09T15:03:20.443Z,30.37
2018-05-09T15:05:46.817Z,29.56
2018-05-09T15:08:13.975Z,30.10
2018-05-09T15:10:40.324Z,28.88
2018-05-09T15:13:06.676Z,28.70
2018-05-09T15:15:33.148Z,28.57
2018-05-09T15:18:00.361Z,28.54
2018-05-09T15:20:26.742Z,28.78
2018-05-09T15:22:53.127Z,30.36
2018-05-09T15:25:19.584Z,30.58
2018-05-09T15:27:46.710Z,30.62
2018-05-09T15:30:13.135Z,30.89
2018-05-09T15:32:39.639Z,29.76
2018-05-09T15:35:05.942Z,29.52
2018-05-09T15:37:33.120Z,31.29
2018-05-09T15:39:59.630Z,31.02
2018-05-09T15:42:26.398Z,31.23
2018-05-09T15:44:52.756Z,30.66
2018-05-09T15:47:19.874Z,30.82
2018-05-09T15:49:46.249Z,30.82
2018-05-09T15:52:12.619Z,30.61
2018-05-09T15:54:39.231Z,29.73
2018-05-09T15:57:05.819Z,30.42
2018-05-09T15:59:32.191Z,29.58
2018-05-09T16:01:59.395Z,30.33
2018-05-09T16:04:25.944Z,30.79
2018-05-09T16:06:52.291Z,31.20
2018-05-09T16:09:18.750Z,31.86
2018-05-09T16:11:46.050Z,30.59
2018-05-09T16:14:12.429Z,31.14
2018-05-09T16:16:39.527Z,31.37
2018-05-09T16:19:05.892Z,30.92
2018-05-09T16:21:32.319Z,31.50
2018-05-09T16:23:58.736Z,31.53
2018-05-09T16:26:25.110Z,31.62
2018-05-09T16:28:51.541Z,31.07
2018-05-09T16:31:18.667Z,32.30
2018-05-09T16:33:44.999Z,30.64
2018-05-09T16:36:11.424Z,32.79
2018-05-09T16:38:37.765Z,31.01
2018-05-09T16:41:04.286Z,32.73
2018-05-09T16:43:31.779Z,31.95
2018-05-09T16:45:58.496Z,30.38
2018-05-09T16:48:25.586Z,32.18
2018-05-09T16:50:52.074Z,32.47
2018-05-09T16:53:18.548Z,32.25
2018-05-09T16:55:45.396Z,33.45
2018-05-09T16:58:11.790Z,31.76
2018-05-09T17:00:38.977Z,32.28
2018-05-09T17:03:05.318Z,33.19
2018-05-09T17:05:31.810Z,32.90
2018-05-09T17:07:58.271Z,32.91
2018-05-09T17:10:24.634Z,34.02
2018-05-09T17:12:51.121Z,32.45
2018-05-09T17:15:17.627Z,33.15
2018-05-09T17:17:44.002Z,32.91
2018-05-09T17:20:10.370Z,32.75
2018-05-09T17:22:36.814Z,32.34
2018-05-09T17:25:03.277Z,32.91
2018-05-09T17:27:29.768Z,33.41
2018-05-09T17:29:56.124Z,32.84
2018-05-09T17:32:23.267Z,33.18
2018-05-09T17:34:50.059Z,33.12
2018-05-09T17:37:16.476Z,32.76
2018-05-09T17:39:42.878Z,32.72
2018-05-09T17:42:10.107Z,32.91
2018-05-09T17:44:36.517Z,32.90
2018-05-09T17:47:02.849Z,32.45
2018-05-09T17:49:29.287Z,33.67
2018-05-09T17:51:55.853Z,33.70
2018-05-09T17:54:22.961Z,34.51
2018-05-09T17:56:49.443Z,33.82
2018-05-09T17:59:16.006Z,34.27
2018-05-09T18:01:42.487Z,34.69
2018-05-09T18:04:09.110Z,37.26
2018-05-09T18:06:35.555Z,38.27
2018-05-09T18:09:01.990Z,39.79
2018-05-09T18:11:28.485Z,40.94
2018-05-09T18:13:54.824Z,41.19
2018-05-09T18:16:21.192Z,41.26
2018-05-09T18:18:47.971Z,41.59
2018-05-09T18:21:14.404Z,41.95
2018-05-09T18:23:40.793Z,42.39
2018-05-09T18:26:07.449Z,43.55
2018-05-09T18:28:34.050Z,44.75
2018-05-09T18:31:00.395Z,44.83
2018-05-09T18:33:27.701Z,44.48
2018-05-09T18:35:54.687Z,45.33
2018-05-09T18:38:21.192Z,45.45
2018-05-09T18:40:48.540Z,45.78
2018-05-09T18:43:14.905Z,45.39
2018-05-09T18:45:41.398Z,45.88
2018-05-09T18:48:07.830Z,45.89
2018-05-09T18:50:34.491Z,45.75
2018-05-09T18:53:01.352Z,45.53
2018-05-09T18:55:28.226Z,45.70
2018-05-09T18:57:56.131Z,45.32
2018-05-09T19:00:22.545Z,45.30
2018-05-09T19:02:49.063Z,45.54
2018-05-09T19:05:15.580Z,45.96
2018-05-09T19:07:42.262Z,46.17
2018-05-09T19:10:08.927Z,46.19
2018-05-09T19:12:36.588Z,46.01
2018-05-09T19:15:04.304Z,46.23
2018-05-09T19:17:30.840Z,46.39
2018-05-09T19:19:58.185Z,46.69
2018-05-09T19:22:24.771Z,46.40
2018-05-09T19:24:51.470Z,46.43
2018-05-09T19:27:17.812Z,46.30
2018-05-09T19:29:44.180Z,45.93
2018-05-09T19:32:10.592Z,46.00
2018-05-09T19:34:37.007Z,46.21
2018-05-09T19:37:03.590Z,46.27
2018-05-09T19:39:30.505Z,45.94
2018-05-09T19:41:57.994Z,45.99
2018-05-09T19:44:25.514Z,45.87
2018-05-09T19:46:52.125Z,45.58
2018-05-09T19:49:19.082Z,46.34
2018-05-09T19:51:45.661Z,46.61
2018-05-09T19:54:12.261Z,46.68
2018-05-09T19:56:39.172Z,46.54
2018-05-09T19:59:05.976Z,47.17
2018-05-09T20:01:32.939Z,46.61
2018-05-09T20:04:04.238Z,46.70
2018-05-09T20:06:31.057Z,46.52
2018-05-09T20:08:57.768Z,46.37
2018-05-09T20:11:25.213Z,46.28
2018-05-09T20:13:52.056Z,46.01
2018-05-09T20:16:19.679Z,45.84
2018-05-09T20:18:46.911Z,45.78
2018-05-09T20:21:13.799Z,45.91
2018-05-09T20:23:41.028Z,45.28
2018-05-09T20:26:32.014Z,45.45
2018-05-09T20:29:01.775Z,45.67
2018-05-09T20:31:53.030Z,45.67
2018-05-09T20:34:20.061Z,46.89
2018-05-09T20:36:47.954Z,47.25
2018-05-09T20:39:15.194Z,47.56
2018-05-09T20:41:42.907Z,48.65
2018-05-09T20:44:10.226Z,48.55
2018-05-09T20:46:37.079Z,49.17
2018-05-09T20:49:03.798Z,49.32
2018-05-09T20:51:49.268Z,49.14
2018-05-09T20:54:16.923Z,48.85
2018-05-09T20:56:44.039Z,46.55
2018-05-09T20:59:11.262Z,47.38
2018-05-09T21:01:53.328Z,47.56
2018-05-09T21:04:19.828Z,46.26
2018-05-09T21:06:46.355Z,47.53
2018-05-09T21:09:17.249Z,47.02
2018-05-09T21:12:09.546Z,47.68
2018-05-09T21:14:44.378Z,47.23
2018-05-09T21:17:10.873Z,47.70
2018-05-09T21:19:37.422Z,46.69
2018-05-09T21:22:03.892Z,46.76
2018-05-09T21:24:30.721Z,46.84
2018-05-09T21:26:57.242Z,46.10
2018-05-09T21:29:23.964Z,43.90
2018-05-09T21:31:54.115Z,45.99
2018-05-09T21:34:21.603Z,44.76
2018-05-09T21:36:48.236Z,45.94
2018-05-09T21:39:20.491Z,44.99
2018-05-09T21:41:47.795Z,41.63
2018-05-09T21:44:15.088Z,41.97
2018-05-09T21:46:41.603Z,42.02
2018-05-09T21:49:08.351Z,41.21
2018-05-09T21:51:34.710Z,41.16
2018-05-09T21:54:01.175Z,40.22
2018-05-09T21:56:27.733Z,40.24
2018-05-09T21:58:54.302Z,39.83
2018-05-09T22:01:22.667Z,39.52
2018-05-09T22:03:49.934Z,38.67
2018-05-09T22:06:16.459Z,39.07
2018-05-09T22:08:43.034Z,41.13
2018-05-09T22:11:10.670Z,43.38
2018-05-09T22:13:37.406Z,43.99
2018-05-09T22:16:03.876Z,45.56
2018-05-09T22:18:30.437Z,44.72
2018-05-09T22:20:56.964Z,46.27
2018-05-09T22:23:23.588Z,46.40
2018-05-09T22:25:50.146Z,46.38
2018-05-09T22:28:17.392Z,46.57
2018-05-09T22:30:44.869Z,45.07
2018-05-09T22:33:11.275Z,43.20
2018-05-09T22:35:37.836Z,41.69
2018-05-09T22:38:04.255Z,41.49
2018-05-09T22:40:30.799Z,41.20
2018-05-09T22:42:57.436Z,41.22
2018-05-09T22:45:23.869Z,40.91
2018-05-09T22:47:50.385Z,40.55
2018-05-09T22:50:16.977Z,40.42
2018-05-09T22:52:43.552Z,41.08
2018-05-09T22:55:10.090Z,41.06
2018-05-09T22:57:36.491Z,40.61
2018-05-09T23:00:08.408Z,40.70
2018-05-09T23:02:34.921Z,39.95
2018-05-09T23:05:01.513Z,41.25
2018-05-09T23:07:28.809Z,42.30
2018-05-09T23:09:55.236Z,43.51
2018-05-09T23:12:21.682Z,45.19
2018-05-09T23:14:48.123Z,45.89
2018-05-09T23:17:15.424Z,46.90
2018-05-09T23:19:42.894Z,47.94
2018-05-09T23:22:09.838Z,48.46
2018-05-09T23:24:36.473Z,48.27
2018-05-09T23:27:03.046Z,47.70
2018-05-09T23:29:29.480Z,47.94
2018-05-09T23:31:56.080Z,47.11
2018-05-09T23:34:23.018Z,47.78
2018-05-09T23:36:54.155Z,47.21
2018-05-09T23:39:21.351Z,47.60
2018-05-09T23:41:52.122Z,47.56
2018-05-09T23:44:18.653Z,47.91
2018-05-09T23:46:45.401Z,48.24
2018-05-09T23:49:12.815Z,47.91
2018-05-09T23:51:39.309Z,47.73
2018-05-09T23:54:05.783Z,48.50
2018-05-09T23:56:36.612Z,48.97
2018-05-09T23:59:03.066Z,49.04
